Time;durP1;ratioP1;P1;durP2;ratioP2;P2;SDS_P1;SDS_P2;PMS_P1;PMS_P2;Temp;Humidity;BMP_temperature;BMP_pressure;BME280_temperature;BME280_humidity;BME280_pressure;Samples;Min_cycle;Max_cycle;Signal;HPM_P1;HPM_P2
2023/11/07 00:02:39;;;;;;;6.00;2.30;;;;;;;9.65;75.86;99715.03;6231602;22;19995;-96
2023/11/07 00:05:24;;;;;;;5.38;2.10;;;;;;;9.61;76.67;99713.94;6209264;22;20004;-96
2023/11/07 00:07:53;;;;;;;6.63;2.30;;;;;;;9.51;76.29;99704.69;6209377;22;19999;-96
2023/11/07 00:10:21;;;;;;;7.78;2.28;;;;;;;9.54;76.42;99710.63;6205197;22;20027;-96
2023/11/07 00:12:51;;;;;;;5.65;1.80;;;;;;;9.48;76.42;99715.13;6256149;22;20000;-96
2023/11/07 00:15:32;;;;;;;;;;;;;;;;;;;;;
2023/11/07 00:18:08;;;;;;;5.10;1.90;;;;;;;9.23;76.80;99691.47;6237721;22;20018;-96
2023/11/07 00:20:51;;;;;;;3.88;1.98;;;;;;;9.41;76.57;99723.41;6210995;22;19995;-96
2023/11/07 00:23:24;;;;;;;4.97;1.90;;;;;;;9.41;76.29;99706.47;6205637;22;20000;-96
2023/11/07 00:26:04;;;;;;;;;;;;;;;;;;;;;
2023/11/07 00:29:11;;;;;;;;;;;;;;;;;;;;;
2023/11/07 00:32:03;;;;;;;4.38;1.85;;;;;;;9.48;76.42;99723.19;6248688;22;20019;-96
2023/11/07 00:34:39;;;;;;;;;;;;;;;9.47;76.70;99722.38;6273242;22;20008;-96
2023/11/07 00:40:09;;;;;;;6.20;1.95;;;;;;;9.36;76.15;99707.22;6192233;22;20025;-95
2023/11/07 00:42:49;;;;;;;;;;;;;;;;;;;;;
2023/11/07 00:45:36;;;;;;;1.95;1.27;;;;;;;9.18;76.89;99699.50;6235958;22;20037;-96
2023/11/07 00:48:07;;;;;;;5.60;1.45;;;;;;;9.18;76.68;99700.31;6236714;22;20019;-95
2023/11/07 00:50:37;;;;;;;5.15;1.88;;;;;;;9.34;76.44;99714.72;6235402;22;20082;-96
2023/11/07 00:53:18;;;;;;;;;;;;;;;;;;;;;
2023/11/07 00:55:57;;;;;;;;;;;;;;;;;;;;;
2023/11/07 00:58:30;;;;;;;5.10;2.33;;;;;;;9.08;76.63;99709.03;6237440;22;20015;-96
2023/11/07 01:01:02;;;;;;;7.95;2.00;;;;;;;9.17;76.84;99730.94;6234460;22;20006;-96
2023/11/07 01:03:43;;;;;;;4.60;1.70;;;;;;;9.01;76.95;99713.00;6208732;22;20033;-96
2023/11/07 01:06:14;;;;;;;5.20;2.03;;;;;;;9.15;77.20;99733.06;6210996;22;20403;-96
2023/11/07 01:08:39;;;;;;;4.57;1.70;;;;;;;8.88;77.31;99703.41;6233906;22;20004;-96
2023/11/07 01:11:08;;;;;;;3.80;1.35;;;;;;;8.99;77.38;99709.75;6207408;22;20002;-96
2023/11/07 01:13:38;;;;;;;3.70;1.48;;;;;;;9.03;77.39;99721.63;6207645;22;19980;-96
2023/11/07 01:16:13;;;;;;;3.75;1.60;;;;;;;8.82;77.57;99696.34;6231752;22;20003;-96
2023/11/07 01:18:54;;;;;;;;;;;;;;;;;;;;;
2023/11/07 01:21:47;;;;;;;4.88;2.20;;;;;;;8.92;78.17;99717.16;6246724;22;20016;-96
2023/11/07 01:24:26;;;;;;;;;;;;;;;;;;;;;
2023/11/07 01:27:12;;;;;;;5.50;2.03;;;;;;;8.89;77.38;99721.16;6236462;22;20070;-96
2023/11/07 01:29:46;;;;;;;7.25;1.67;;;;;;;8.78;77.94;99712.16;6261080;22;20030;-96
2023/11/07 01:32:27;;;;;;;;;;;;;;;;;;;;;
2023/11/07 01:34:56;;;;;;;7.53;1.92;;;;;;;8.51;77.78;99714.75;6238165;22;20442;-96
2023/11/07 01:37:34;;;;;;;;;;;;;;;;;;;;;
2023/11/07 01:40:00;;;;;;;4.20;1.92;;;;;;;8.50;77.53;99710.41;6237268;22;20029;-96
2023/11/07 01:42:28;;;;;;;8.50;1.98;;;;;;;8.51;78.01;99714.75;6232647;22;20082;-96
2023/11/07 01:44:59;;;;;;;7.70;2.13;;;;;;;8.67;77.38;99737.22;6212709;22;20004;-96
2023/11/07 01:47:32;;;;;;;10.57;2.10;;;;;;;8.55;77.48;99715.03;6213373;22;19987;-96
2023/11/07 01:50:15;;;;;;;;;;;;;;;;;;;;;
2023/11/07 01:52:51;;;;;;;6.75;2.35;;;;;;;8.32;77.62;99699.91;6238830;22;20026;-96
2023/11/07 01:55:20;;;;;;;3.97;2.33;;;;;;;8.44;77.72;99720.25;6234296;22;20003;-96
2023/11/07 01:58:00;;;;;;;8.15;2.50;;;;;;;8.51;77.71;99730.84;6206301;22;20100;-96
2023/11/07 02:00:29;;;;;;;9.13;2.85;;;;;;;8.36;77.80;99715.28;6235136;22;20000;-96
2023/11/07 02:03:14;;;;;;;;;;;;;;;;;;;;;
2023/11/07 02:08:36;;;;;;;6.63;2.80;;;;;;;8.48;78.07;99742.88;6226700;22;20003;-96
2023/11/07 02:11:07;;;;;;;7.20;2.92;;;;;;;8.41;77.74;99728.00;6209064;22;19980;-96
2023/11/07 02:13:43;;;;;;;;;;;;;;;;;;;;;
2023/11/07 02:16:27;;;;;;;;;;;;;;;;;;;;;
2023/11/07 02:18:55;;;;;;;8.32;3.53;;;;;;;8.33;78.03;99736.44;6281572;22;20020;-96
2023/11/07 02:21:33;;;;;;;5.38;3.00;;;;;;;8.23;77.88;99727.16;6256384;22;20346;-96
2023/11/07 02:24:13;;;;;;;;;;;;;;;;;;;;;
2023/11/07 02:26:40;;;;;;;7.60;3.55;;;;;;;8.33;77.73;99756.03;6257946;22;20466;-96
2023/11/07 02:29:17;;;;;;;;;;;;;;;;;;;;;
2023/11/07 02:31:56;;;;;;;;;;;;;;;;;;;;;
2023/11/07 02:34:23;;;;;;;5.80;2.90;;;;;;;8.36;77.38;99757.41;6234221;22;20030;-95
2023/11/07 02:36:51;;;;;;;14.07;3.85;;;;;;;8.31;77.31;99736.69;6229207;22;20070;-96
2023/11/07 02:39:34;;;;;;;;;;;;;;;;;;;;;
2023/11/07 02:42:10;;;;;;;;;;;;;;;;;;;;;
2023/11/07 02:45:04;;;;;;;;;;;;;;;;;;;;;
2023/11/07 02:47:50;;;;;;;;;;;;;;;;;;;;;
2023/11/07 02:50:33;;;;;;;6.78;3.40;;;;;;;8.43;77.23;99775.00;6235480;22;20061;-96
2023/11/07 02:53:09;;;;;;;;;;;;;;;;;;;;;
2023/11/07 02:56:01;;;;;;;9.85;4.05;;;;;;;8.36;77.75;99776.19;6258038;22;20035;-96
2023/11/07 02:58:30;;;;;;;10.37;3.90;;;;;;;8.34;77.80;99778.28;6236270;22;20039;-96
2023/11/07 03:00:59;;;;;;;10.48;4.47;;;;;;;8.19;77.95;99757.41;6230028;22;20078;-95
2023/11/07 03:03:25;;;;;;;13.18;4.47;;;;;;;8.27;77.61;99773.09;6230829;22;20007;-96
2023/11/07 03:05:58;;;;;;;9.55;3.97;;;;;;;8.50;77.23;99794.41;6229446;22;20426;-95
2023/11/07 03:08:52;;;;;;;11.70;3.92;;;;;;;8.56;77.15;99789.16;6256490;22;20000;-96
2023/11/07 03:11:32;;;;;;;12.15;3.95;;;;;;;8.47;77.32;99764.59;6240525;22;20510;-96
2023/11/07 03:13:58;;;;;;;11.60;4.23;;;;;;;8.62;77.46;99780.94;6258248;22;19996;-96
2023/11/07 03:16:28;;;;;;;7.65;3.63;;;;;;;8.47;76.92;99756.56;6204957;22;20011;-96
2023/11/07 03:19:09;;;;;;;;;;;;;;;;;;;;;
2023/11/07 03:21:37;;;;;;;7.70;3.65;;;;;;;8.60;77.02;99785.72;6236862;22;20438;-96
2023/11/07 03:24:16;;;;;;;9.57;4.75;;;;;;;8.44;76.97;99765.06;6231710;22;20088;-95
2023/11/07 03:26:54;;;;;;;9.68;3.58;;;;;;;8.34;77.02;99762.19;6210902;22;19996;-96
2023/11/07 03:29:29;;;;;;;;;;;;;;;;;;;;;
2023/11/07 03:31:56;;;;;;;13.52;3.80;;;;;;;8.27;76.89;99759.69;6258830;22;20379;-94
2023/11/07 03:34:36;;;;;;;11.13;3.47;;;;;;;8.40;77.02;99780.00;6230831;22;19988;-95
2023/11/07 03:37:11;;;;;;;13.32;3.47;;;;;;;8.32;77.35;99780.41;6209278;22;19996;-96
2023/11/07 03:40:15;;;;;;;;;;;;;;;;;;;;;
2023/11/07 03:42:41;;;;;;;7.43;3.95;;;;;;;8.05;77.11;99747.00;6283219;22;20023;-96
2023/11/07 03:45:16;;;;;;;;;;;;;;;;;;;;;
2023/11/07 03:47:55;;;;;;;9.23;3.63;;;;;;;8.20;77.45;99762.53;6259397;22;20082;-96
2023/11/07 03:50:24;;;;;;;9.88;3.67;;;;;;;8.08;76.96;99754.53;6232395;22;20078;-96
2023/11/07 03:52:55;;;;;;;9.35;3.22;;;;;;;8.22;77.18;99787.25;6231998;22;19999;-95
2023/11/07 03:55:30;;;;;;;7.38;3.60;;;;;;;8.13;76.97;99782.50;6207129;22;20419;-96
2023/11/07 03:58:08;;;;;;;10.35;3.80;;;;;;;8.10;77.19;99778.44;6258790;22;20023;-95
2023/11/07 04:00:43;;;;;;;;;;;;;;;;;;;;;
2023/11/07 04:03:14;;;;;;;10.55;3.38;;;;;;;8.09;76.86;99798.25;6235186;22;20019;-96
2023/11/07 04:05:52;;;;;;;;;;;;;;;;;;;;;
2023/11/07 04:08:38;;;;;;;;;;;;;;;;;;;;;
2023/11/07 04:11:19;;;;;;;9.07;3.60;;;;;;;7.85;77.61;99793.03;6259505;22;20030;-95
2023/11/07 04:14:03;;;;;;;;;;;;;;;;;;;;;
2023/11/07 04:16:31;;;;;;;6.15;3.42;;;;;;;7.66;77.45;99776.31;6235772;22;20383;-95
2023/11/07 04:18:59;;;;;;;12.38;3.65;;;;;;;7.64;78.02;99777.63;6230883;22;19988;-95
2023/11/07 04:21:30;;;;;;;9.60;3.75;;;;;;;7.80;78.33;99792.94;6231122;22;20018;-96
2023/11/07 04:24:25;;;;;;;8.75;3.60;;;;;;;7.63;78.00;99774.09;6233396;22;19999;-95
2023/11/07 04:26:56;;;;;;;10.23;3.35;;;;;;;7.64;78.28;99786.47;6240467;22;20003;-96
2023/11/07 04:30:10;;;;;;;10.35;3.90;;;;;;;7.67;78.16;99790.53;6208887;22;19999;-95
2023/11/07 04:32:47;;;;;;;;;;;;;;;;;;;;;
2023/11/07 04:35:46;;;;;;;;;;;;;;;;;;;;;
2023/11/07 04:38:50;;;;;;;10.88;4.07;;;;;;;7.58;77.71;99776.69;6273850;22;19996;-96
2023/11/07 04:41:28;;;;;;;;;;;;;;;;;;;;;
2023/11/07 04:44:31;;;;;;;;;;;;;;;;;;;;;
2023/11/07 04:47:23;;;;;;;;;;;;;;;;;;;;;
2023/11/07 04:50:12;;;;;;;10.00;5.18;;;;;;;7.54;77.93;99805.03;6266182;22;20025;-96
2023/11/07 04:52:47;;;;;;;17.05;4.88;;;;;;;7.57;78.14;99804.53;6271247;22;20000;-96
2023/11/07 04:56:08;;;;;;;12.02;4.78;;;;;;;7.64;78.18;99825.88;6247035;22;20377;-96
2023/11/07 04:59:09;;;;;;;;;;;;;;;;;;;;;
2023/11/07 05:01:45;;;;;;;9.88;4.45;;;;;;;7.50;78.30;99814.59;6270064;22;20023;-96
2023/11/07 05:04:15;;;;;;;13.32;5.75;;;;;;;7.47;78.48;99810.53;6216874;22;20004;-95
2023/11/07 05:07:10;;;;;;;13.18;5.55;;;;;;;7.45;77.82;99804.59;6236169;22;20003;-94
2023/11/07 05:10:14;;;;;;;;;;;;;;;;;;;;;
2023/11/07 05:13:15;;;;;;;;;;;;;;;;;;;;;
2023/11/07 05:19:21;;;;;;;;;;;;;;;;;;;;;
2023/11/07 05:22:14;;;;;;;16.35;6.00;;;;;;;7.37;78.07;99812.19;6271219;22;19996;-95
2023/11/07 05:27:56;;;;;;;12.43;5.80;;;;;;;7.29;78.18;99811.50;6263963;22;20004;-96
2023/11/07 05:30:28;;;;;;;12.00;5.72;;;;;;;7.36;77.97;99815.91;6236350;22;20011;-96
2023/11/07 05:32:59;;;;;;;20.98;8.07;;;;;;;7.45;78.20;99842.09;6210814;22;19999;-93
2023/11/07 05:35:34;;;;;;;15.80;6.80;;;;;;;7.45;78.12;99836.75;6228986;22;20419;-94
2023/11/07 05:38:04;;;;;;;17.23;6.03;;;;;;;7.52;77.74;99844.66;6209802;22;20056;-92
2023/11/07 05:40:41;;;;;;;17.52;5.80;;;;;;;7.47;78.04;99845.34;6259159;22;20000;-94
2023/11/07 05:43:18;;;;;;;;;;;;;;;;;;;;;
2023/11/07 05:45:50;;;;;;;104.47;49.75;;;;;;;7.58;77.40;99846.38;6257849;22;20027;-95
2023/11/07 05:48:40;;;;;;;;;;;;;;;7.78;77.82;99886.19;6235382;22;19991;-95
2023/11/07 05:51:30;;;;;;;14.70;6.47;;;;;;;7.67;77.83;99871.75;6260191;22;19906;-95
2023/11/07 05:54:22;;;;;;;16.15;7.40;;;;;;;7.54;78.04;99852.44;6259967;22;19995;-95
2023/11/07 05:56:47;;;;;;;;;;;;;;;7.93;77.61;99895.56;6262579;22;20039;-95
2023/11/07 05:59:26;;;;;;;34.10;22.65;;;;;;;7.74;78.45;99874.31;6263032;22;19911;-94
2023/11/07 06:01:55;;;;;;;19.75;6.45;;;;;;;7.75;78.07;99869.75;6210943;22;20081;-94
2023/11/07 06:04:41;;;;;;;15.52;5.70;;;;;;;7.87;77.92;99871.34;6119059;23;20040;-92
2023/11/07 06:07:16;;;;;;;15.52;6.85;;;;;;;8.15;77.82;99888.50;6163889;23;20464;-94
2023/11/07 06:09:51;;;;;;;13.20;6.97;;;;;;;8.33;77.20;99903.59;6177572;23;20020;-94
2023/11/07 06:12:34;;;;;;;19.02;8.30;;;;;;;8.28;77.16;99888.22;6190207;22;20020;-95
2023/11/07 06:15:08;;;;;;;21.38;9.10;;;;;;;8.37;76.71;99879.78;6132468;23;20017;-95
2023/11/07 06:17:37;;;;;;;21.23;6.32;;;;;;;8.61;76.25;99908.16;6177498;23;20397;-95
2023/11/07 06:20:19;;;;;;;;;;;;;;;;;;;;;
2023/11/07 06:23:01;;;;;;;20.10;8.80;;;;;;;8.57;76.50;99890.91;6203042;23;20020;-95
2023/11/07 06:25:27;;;;;;;15.23;7.00;;;;;;;8.63;75.93;99878.38;6180597;22;20108;-94
2023/11/07 06:28:21;;;;;;;;;;;;;;;;;;;;;
2023/11/07 06:31:43;;;;;;;;;;;;;;;;;;;;;
2023/11/07 06:34:28;;;;;;;13.05;6.03;;;;;;;9.00;75.09;99881.38;6161302;23;20036;-96
2023/11/07 06:37:11;;;;;;;15.57;6.35;;;;;;;9.20;74.59;99893.50;6112806;23;20001;-96
2023/11/07 06:39:49;;;;;;;;;;;;;;;9.31;74.51;99906.81;6139418;23;20621;-95
2023/11/07 06:42:23;;;;;;;35.65;13.82;;;;;;;9.23;74.41;99874.19;6161336;23;19920;-95
2023/11/07 06:45:00;;;;;;;17.83;7.32;;;;;;;9.40;73.26;99880.34;6135889;23;20006;-96
2023/11/07 06:47:55;;;;;;;16.20;6.90;;;;;;;9.44;73.26;99873.44;6136219;23;20009;-95
2023/11/07 06:53:37;;;;;;;22.98;6.00;;;;;;;9.59;73.14;99877.38;6124173;23;20025;-93
2023/11/07 06:56:06;;;;;;;18.75;7.18;;;;;;;9.71;73.17;99868.13;6104704;23;20005;-92
2023/11/07 06:58:45;;;;;;;;;;;;;;;;;;;;;
2023/11/07 07:01:14;;;;;;;19.65;6.90;;;;;;;10.09;72.13;99887.91;6112068;23;20024;-93
2023/11/07 07:04:16;;;;;;;29.63;10.43;;;;;;;10.39;72.32;99901.97;6132519;23;20841;-92
2023/11/07 07:06:41;;;;;;;15.27;6.30;;;;;;;10.32;71.93;99877.97;6141087;23;20006;-92
2023/11/07 07:09:10;;;;;;;19.38;6.25;;;;;;;10.44;71.61;99891.28;6083233;23;20032;-95
2023/11/07 07:11:38;;;;;;;19.55;5.88;;;;;;;10.45;71.07;99877.53;6159710;23;20004;-93
2023/11/07 07:14:11;;;;;;;20.00;5.93;;;;;;;10.67;71.07;99892.81;6172918;23;20003;-96
2023/11/07 07:16:37;;;;;;;16.95;6.80;;;;;;;10.80;70.87;99878.13;6177132;23;20008;-94
2023/11/07 07:19:25;;;;;;;20.02;5.47;;;;;;;10.95;70.32;99880.09;6169669;23;20313;-92
2023/11/07 07:21:55;;;;;;;16.05;6.75;;;;;;;11.24;69.71;99896.75;6168200;23;20087;-92
2023/11/07 07:24:39;;;;;;;15.02;5.80;;;;;;;11.17;69.38;99866.53;6145534;23;20036;-93
2023/11/07 07:27:29;;;;;;;13.98;6.45;;;;;;;11.41;68.88;99883.91;6146306;23;20005;-92
2023/11/07 07:30:15;;;;;;;;;;;;;;;;;;;;;
2023/11/07 07:32:45;;;;;;;21.17;7.75;;;;;;;11.76;68.44;99878.94;6176948;23;20456;-94
2023/11/07 07:36:14;;;;;;;;;;;;;;;;;;;;;
2023/11/07 07:38:46;;;;;;;20.38;8.00;;;;;;;12.05;67.48;99877.44;6088250;23;20026;-94
2023/11/07 07:41:35;;;;;;;15.82;7.90;;;;;;;12.21;67.15;99877.50;6171173;23;20028;-93
2023/11/07 07:44:20;;;;;;;19.88;7.68;;;;;;;12.30;66.41;99859.69;6173839;23;20436;-94
2023/11/07 07:48:17;;;;;;;21.90;11.30;;;;;;;12.47;65.83;99854.03;6198778;23;20011;-91
2023/11/07 07:50:30;;;;;;;18.23;8.02;;;;;;;12.68;65.10;99869.19;6139961;23;20072;-93
2023/11/07 07:53:56;;;;;;;;;;;;;;;;;;;;;
2023/11/07 07:56:57;;;;;;;20.98;7.68;;;;;;;13.18;64.21;99901.88;6200013;23;20158;-93
2023/11/07 08:00:07;;;;;;;26.02;10.27;;;;;;;13.17;64.21;99870.50;6043483;23;20020;-94
2023/11/07 08:03:18;;;;;;;20.92;8.13;;;;;;;13.33;63.34;99872.13;6192024;23;20032;-92
2023/11/07 08:06:25;;;;;;;28.27;8.35;;;;;;;13.65;63.09;99892.56;6138661;23;20024;-93
2023/11/07 08:09:11;;;;;;;;;;;;;;;;;;;;;
2023/11/07 08:12:08;;;;;;;23.05;7.60;;;;;;;13.78;62.25;99869.53;6164378;23;20029;-95
2023/11/07 08:18:23;;;;;;;;;;;;;;;;;;;;;
2023/11/07 08:21:49;;;;;;;20.10;8.23;;;;;;;14.43;61.89;99895.72;6166649;23;20002;-94
2023/11/07 08:24:47;;;;;;;14.95;7.82;;;;;;;14.48;61.11;99882.94;6145326;23;20149;-95
2023/11/07 08:27:17;;;;;;;21.50;8.70;;;;;;;14.46;61.20;99855.31;6071400;23;20014;-93
2023/11/07 08:29:51;;;;;;;25.98;9.30;;;;;;;14.68;60.88;99871.19;6106294;23;20445;-94
2023/11/07 08:32:19;;;;;;;24.85;9.93;;;;;;;14.66;60.98;99857.09;6105170;23;20006;-92
2023/11/07 08:35:11;;;;;;;25.98;8.13;;;;;;;14.92;60.46;99875.84;6130906;23;20401;-93
2023/11/07 08:38:35;;;;;;;;;;;;;;;;;;;;;
2023/11/07 08:41:04;;;;;;;14.60;7.38;;;;;;;15.10;60.26;99858.06;6178088;23;20005;-95
2023/11/07 08:44:08;;;;;;;;;;;;;;;;;;;;;
2023/11/07 08:46:54;;;;;;;;;;;;;;;;;;;;;
2023/11/07 08:49:50;;;;;;;16.98;7.50;;;;;;;15.64;59.07;99883.25;6151828;23;20065;-94
2023/11/07 08:53:24;;;;;;;;;;;;;;;;;;;;;
2023/11/07 08:56:26;;;;;;;;;;;;;;;;;;;;;
2023/11/07 09:13:05;;;;;;;;;;;;;;;;;;;;;
2023/11/07 09:16:21;;;;;;;;;;;;;;;;;;;;;
2023/11/07 09:26:57;;;;;;;;;;;;;;;;;;;;;
2023/11/07 09:30:11;;;;;;;24.38;11.38;;;;;;;17.41;54.45;99846.59;5967751;24;20027;-96
2023/11/07 09:33:57;;;;;;;13.95;7.22;;;;;;;17.49;53.90;99844.00;6011059;23;20570;-94
2023/11/07 10:02:07;;;;;;;;;;;;;;;;;;;;;
2023/11/07 10:19:11;;;;;;;;;;;;;;;;;;;;;
2023/11/07 10:24:58;;;;;;;4.80;1.48;;;;;;;19.38;42.22;99721.31;5993741;23;20008;-93
2023/11/07 10:27:59;;;;;;;;;;;;;;;;;;;;;
2023/11/07 10:30:49;;;;;;;7.80;2.67;;;;;;;19.67;41.64;99740.94;6157236;23;20029;-94
2023/11/07 10:33:49;;;;;;;10.80;2.10;;;;;;;19.65;41.27;99729.50;6133293;23;20001;-93
2023/11/07 10:36:38;;;;;;;;;;;;;;;;;;;;;
2023/11/07 10:39:31;;;;;;;4.60;1.63;;;;;;;19.77;40.63;99727.78;6138033;23;20021;-92
2023/11/07 10:42:39;;;;;;;;;;;;;;;;;;;;;
2023/11/07 10:45:28;;;;;;;5.13;1.60;;;;;;;19.84;40.51;99704.63;6171406;23;20015;-94
2023/11/07 10:48:21;;;;;;;6.97;1.58;;;;;;;19.99;40.22;99702.22;6129504;23;20349;-92
2023/11/07 10:51:12;;;;;;;6.07;2.42;;;;;;;20.01;39.76;99695.63;6145883;23;20011;-92
2023/11/07 10:54:01;;;;;;;11.95;5.07;;;;;;;20.12;39.34;99718.78;6170024;23;20131;-92
2023/11/07 10:56:40;;;;;;;;;;;;;;;;;;;;;
2023/11/07 10:59:38;;;;;;;4.63;1.65;;;;;;;20.10;39.04;99677.28;6146979;23;20020;-89
2023/11/07 11:02:49;;;;;;;4.10;1.27;;;;;;;20.17;39.18;99680.31;6192216;23;20040;-93
2023/11/07 11:05:19;;;;;;;5.10;1.10;;;;;;;20.31;38.73;99666.44;6189286;23;20011;-92
2023/11/07 11:08:23;;;;;;;4.97;1.35;;;;;;;20.43;38.84;99668.50;6181238;23;20004;-94
2023/11/07 11:10:54;;;;;;;5.60;1.10;;;;;;;20.57;39.01;99658.97;6235178;23;20008;-91
2023/11/07 11:17:21;;;;;;;5.28;1.30;;;;;;;20.63;38.36;99656.06;6177057;23;20231;-94
2023/11/07 11:24:28;;;;;;;;;;;;;;;;;;;;;
2023/11/07 11:28:06;;;;;;;;;;;;;;;;;;;;;
2023/11/07 11:33:21;;;;;;;7.53;1.63;;;;;;;20.79;39.13;99666.16;5929149;24;20068;-93
2023/11/07 11:39:35;;;;;;;4.28;1.65;;;;;;;20.84;39.44;99678.03;6234983;23;20062;-96
2023/11/07 11:45:47;;;;;;;4.30;1.73;;;;;;;20.59;39.98;99639.53;6142045;23;20064;-93
2023/11/07 11:48:13;;;;;;;4.30;1.30;;;;;;;20.57;40.03;99642.53;6232904;23;20028;-95
2023/11/07 11:50:42;;;;;;;4.00;1.30;;;;;;;20.53;40.28;99638.06;6202959;23;20000;-92
2023/11/07 11:53:13;;;;;;;4.82;1.08;;;;;;;20.63;40.09;99645.94;6202034;23;20023;-94
2023/11/07 11:56:13;;;;;;;;;;;;;;;;;;;;;
2023/11/07 11:58:51;;;;;;;5.60;1.40;;;;;;;20.47;40.61;99636.66;6254069;23;20058;-93
2023/11/07 12:01:58;;;;;;;4.18;1.40;;;;;;;20.44;41.08;99631.81;6223432;23;20077;-93
2023/11/07 12:04:47;;;;;;;5.05;1.35;;;;;;;20.60;40.74;99657.53;6204908;23;20397;-94
2023/11/07 12:07:20;;;;;;;4.28;1.50;;;;;;;20.52;41.51;99659.16;6207591;23;20012;-93
2023/11/07 12:10:00;;;;;;;4.22;1.33;;;;;;;20.36;41.28;99647.94;6228509;23;20016;-95
2023/11/07 12:12:39;;;;;;;;;;;;;;;;;;;;;
2023/11/07 12:15:12;;;;;;;4.75;1.45;;;;;;;20.18;42.35;99640.91;6206388;23;20028;-94
2023/11/07 12:24:40;;;;;;;3.78;1.20;;;;;;;20.05;40.05;99628.25;6101453;23;20052;-92
2023/11/07 12:27:08;;;;;;;5.32;1.30;;;;;;;20.09;40.01;99623.75;6138409;23;20027;-91
2023/11/07 12:29:55;;;;;;;;;;;;;;;;;;;;;
2023/11/07 12:33:11;;;;;;;;;;;;;;;;;;;;;
2023/11/07 12:38:43;;;;;;;4.72;1.33;;;;;;;20.26;39.00;99637.34;6085426;23;20053;-95
2023/11/07 12:42:00;;;;;;;4.00;1.33;;;;;;;20.39;38.30;99658.22;6105117;23;20059;-95
2023/11/07 12:44:45;;;;;;;;;;;;;;;;;;;;;
2023/11/07 12:48:08;;;;;;;;;;;;;;;;;;;;;
2023/11/07 12:51:25;;;;;;;5.47;1.33;;;;;;;20.34;37.92;99647.47;6071534;23;20344;-94
2023/11/07 13:03:19;;;;;;;4.32;1.65;;;;;;;20.26;38.36;99648.28;6260630;22;20054;-93
2023/11/07 13:06:21;;;;;;;3.90;1.30;;;;;;;20.18;38.29;99628.03;6233268;23;20020;-94
2023/11/07 13:09:53;;;;;;;;;;;;;;;;;;;;;
2023/11/07 13:12:59;;;;;;;;;;;;;;;;;;;;;
2023/11/07 13:16:13;;;;;;;;;;;;;;;;;;;;;
2023/11/07 13:22:27;;;;;;;;;;;;;;;;;;;;;
2023/11/07 13:24:58;;;;;;;6.75;1.50;;;;;;;20.22;37.96;99621.94;6168480;23;20036;-95
2023/11/07 13:27:52;;;;;;;5.53;1.40;;;;;;;20.28;37.29;99635.09;6145334;23;20005;-93
2023/11/07 13:31:08;;;;;;;6.38;1.30;;;;;;;20.06;37.09;99606.03;6172774;23;20013;-95
2023/11/07 13:34:44;;;;;;;;;;;;;;;;;;;;;
2023/11/07 13:37:28;;;;;;;;;;;;;;;;;;;;;
2023/11/07 13:47:14;;;;;;;4.55;1.83;;;;;;;19.99;36.95;99631.16;6258181;23;20007;-94
2023/11/07 13:49:43;;;;;;;;;;;;;;;19.98;36.79;99632.28;6207668;23;20016;-94
2023/11/07 13:52:37;;;;;;;3.92;1.42;;;;;;;19.90;37.02;99635.03;6206604;23;19935;-95
2023/11/07 13:59:15;;;;;;;;;;;;;;;;;;;;;
2023/11/07 14:01:45;;;;;;;6.20;1.77;;;;;;;19.56;37.29;99625.72;6163738;23;20383;-96
2023/11/07 14:04:37;;;;;;;7.30;1.80;;;;;;;19.56;37.82;99631.97;6208079;23;20072;-93
2023/11/07 14:08:15;;;;;;;;;;;;;;;;;;;;;
2023/11/07 14:11:10;;;;;;;3.97;1.25;;;;;;;19.48;38.14;99640.19;6032734;23;20007;-92
2023/11/07 14:13:50;;;;;;;;;;;;;;;;;;;;;
2023/11/07 14:16:43;;;;;;;5.88;1.60;;;;;;;19.33;38.43;99630.53;6016911;23;20024;-93
2023/11/07 14:19:57;;;;;;;8.60;2.20;;;;;;;19.29;38.73;99635.03;6004576;23;20039;-94
2023/11/07 14:22:15;;;;;;;3.10;1.42;;;;;;;19.36;38.12;99646.25;6027120;23;20434;-91
2023/11/07 14:25:40;;;;;;;7.72;2.03;;;;;;;19.23;39.02;99628.91;6037669;23;20000;-94
2023/11/07 14:28:04;;;;;;;;;;;;;;;;;;;;;
2023/11/07 14:31:03;;;;;;;;;;;;;;;;;;;;;
2023/11/07 14:33:32;;;;;;;9.70;3.22;;;;;;;19.11;40.70;99647.84;6179582;23;20016;-96
2023/11/07 14:36:13;;;;;;;8.73;2.70;;;;;;;18.91;40.65;99628.25;6170676;23;20450;-94
2023/11/07 14:39:23;;;;;;;;;;;;;;;;;;;;;
2023/11/07 14:42:09;;;;;;;9.43;2.00;;;;;;;18.91;40.49;99641.88;6199002;23;20407;-93
2023/11/07 14:51:42;;;;;;;9.70;3.20;;;;;;;18.63;43.41;99637.75;6219131;23;20015;-94
2023/11/07 14:54:13;;;;;;;11.07;3.72;;;;;;;18.45;43.31;99628.69;6177525;23;20012;-93
2023/11/07 14:56:44;;;;;;;10.15;3.58;;;;;;;18.28;44.09;99623.97;6178381;23;20003;-94
2023/11/07 14:59:28;;;;;;;15.55;2.92;;;;;;;18.34;44.76;99647.25;6176198;23;20032;-92
2023/11/07 15:01:54;;;;;;;7.88;2.75;;;;;;;18.19;44.64;99637.56;6203224;23;20000;-91
2023/11/07 15:04:31;;;;;;;8.95;2.13;;;;;;;18.02;44.21;99637.47;6202821;23;20083;-91
2023/11/07 15:07:06;;;;;;;10.50;3.83;;;;;;;17.88;45.30;99621.19;6257393;23;20055;-93
2023/11/07 15:09:59;;;;;;;14.68;4.75;;;;;;;17.91;46.29;99654.06;6181505;23;20047;-92
2023/11/07 15:12:24;;;;;;;10.15;4.20;;;;;;;17.71;45.86;99632.75;6186834;23;20010;-92
2023/11/07 15:14:53;;;;;;;6.43;2.70;;;;;;;17.62;45.87;99631.88;6178227;23;20321;-90
2023/11/07 15:18:00;;;;;;;;;;;;;;;;;;;;;
2023/11/07 15:20:49;;;;;;;14.68;3.30;;;;;;;17.57;46.67;99655.38;6239804;23;20038;-93
2023/11/07 15:23:15;;;;;;;8.35;3.65;;;;;;;17.33;47.49;99647.50;6205411;23;20087;-93
2023/11/07 15:25:41;;;;;;;18.55;2.97;;;;;;;17.34;47.53;99656.47;6177147;23;20012;-93
2023/11/07 15:28:26;;;;;;;15.48;3.65;;;;;;;17.27;47.05;99656.88;6175996;23;20516;-94
2023/11/07 15:31:04;;;;;;;;;;;;;;;;;;;;;
2023/11/07 15:34:15;;;;;;;10.10;3.55;;;;;;;17.15;48.01;99667.50;6137940;23;20027;-92
2023/11/07 15:40:13;;;;;;;14.40;5.63;;;;;;;16.95;48.82;99668.72;6180845;23;20398;-94
2023/11/07 15:42:51;;;;;;;16.90;6.45;;;;;;;17.01;48.79;99685.75;6198927;23;20006;-91
2023/11/07 15:45:28;;;;;;;20.25;4.75;;;;;;;16.96;48.49;99698.34;6177846;23;20393;-93
2023/11/07 15:54:42;;;;;;;13.13;4.40;;;;;;;16.85;49.63;99713.25;6249565;23;20035;-89
2023/11/07 15:57:08;;;;;;;15.40;5.18;;;;;;;16.65;49.96;99692.66;6222917;23;19996;-91
2023/11/07 15:59:38;;;;;;;15.73;4.70;;;;;;;16.53;51.11;99689.63;6198708;23;20004;-91
2023/11/07 16:02:06;;;;;;;15.10;4.60;;;;;;;16.54;51.10;99704.84;6250973;23;19996;-92
2023/11/07 16:11:12;;;;;;;9.75;4.70;;;;;;;16.32;52.29;99719.88;6197781;23;20011;-92
2023/11/07 16:13:56;;;;;;;14.43;5.85;;;;;;;16.20;52.23;99697.81;6180956;23;20354;-92
2023/11/07 16:16:38;;;;;;;17.20;6.45;;;;;;;16.15;52.54;99698.72;6178506;23;20004;-95
2023/11/07 16:19:28;;;;;;;11.45;5.22;;;;;;;16.29;53.07;99717.78;6152223;23;20028;-92
2023/11/07 16:28:44;;;;;;;10.57;5.22;;;;;;;15.93;53.55;99693.91;6220891;23;20009;-91
2023/11/07 16:31:10;;;;;;;13.68;4.82;;;;;;;15.98;53.16;99700.34;6144667;23;20005;-93
2023/11/07 16:33:36;;;;;;;11.18;3.90;;;;;;;15.88;52.93;99691.28;6144218;23;19996;-93
2023/11/07 16:36:04;;;;;;;14.07;5.85;;;;;;;15.86;53.79;99696.19;6145113;23;19993;-92
2023/11/07 16:38:29;;;;;;;14.02;6.28;;;;;;;15.86;53.96;99700.84;6170744;23;20059;-94
2023/11/07 16:40:55;;;;;;;50.05;30.77;;;;;;;15.76;53.96;99699.06;6143615;23;20006;-92
2023/11/07 16:43:21;;;;;;;29.52;13.18;;;;;;;15.72;54.11;99698.03;6144256;23;20000;-93
2023/11/07 16:45:47;;;;;;;26.23;12.13;;;;;;;15.69;53.96;99704.03;6167765;23;20070;-93
2023/11/07 16:51:40;;;;;;;14.93;8.23;;;;;;;15.58;55.08;99708.78;6157172;23;20355;-93
2023/11/07 16:54:08;;;;;;;26.92;11.55;;;;;;;15.51;55.53;99716.50;6168390;23;20004;-92
2023/11/07 16:56:37;;;;;;;23.10;8.45;;;;;;;15.31;56.13;99685.03;6169790;23;20381;-93
2023/11/07 16:59:04;;;;;;;19.33;7.70;;;;;;;15.30;56.45;99702.41;6144975;23;19996;-93
2023/11/07 17:01:32;;;;;;;24.20;11.48;;;;;;;15.30;56.51;99705.13;6170801;23;20000;-92
2023/11/07 17:04:01;;;;;;;19.88;6.85;;;;;;;15.33;56.58;99718.09;6145016;23;20013;-90
2023/11/07 17:06:27;;;;;;;20.05;7.63;;;;;;;15.24;57.04;99717.13;6195839;23;19996;-93
2023/11/07 17:09:00;;;;;;;23.58;11.02;;;;;;;15.00;57.48;99695.47;6170028;23;20000;-90
2023/11/07 17:11:26;;;;;;;19.15;9.57;;;;;;;14.86;58.14;99690.75;6171175;23;20001;-92
2023/11/07 17:13:57;;;;;;;15.52;8.15;;;;;;;14.97;58.03;99707.69;6169009;23;20031;-93
2023/11/07 17:16:22;;;;;;;47.58;29.85;;;;;;;14.81;58.35;99682.66;6145940;23;19997;-92
2023/11/07 17:18:48;;;;;;;30.98;15.43;;;;;;;14.84;58.53;99692.94;6144004;23;20020;-92
2023/11/07 17:21:16;;;;;;;20.13;7.68;;;;;;;14.82;58.53;99687.00;6169378;23;20000;-91
2023/11/07 17:23:42;;;;;;;19.67;6.32;;;;;;;14.79;58.55;99686.75;6166794;23;20001;-91
2023/11/07 17:26:07;;;;;;;19.10;8.35;;;;;;;14.77;59.46;99697.88;6142500;23;20004;-91
2023/11/07 17:28:33;;;;;;;17.13;6.10;;;;;;;14.72;59.64;99712.31;6194502;23;20344;-91
2023/11/07 17:30:59;;;;;;;14.57;6.93;;;;;;;14.49;59.81;99675.13;6169392;23;19989;-91
2023/11/07 17:33:24;;;;;;;14.45;6.47;;;;;;;14.50;60.03;99677.53;6145281;23;20038;-91